Time;durP1;ratioP1;P1;durP2;ratioP2;P2;SDS_P1;SDS_P2;PMS_P1;PMS_P2;Temp;Humidity;BMP_temperature;BMP_pressure;BME280_temperature;BME280_humidity;BME280_pressure;Samples;Min_cycle;Max_cycle;Signal;HPM_P1;HPM_P2
2021/06/15 00:00:33;;;;;;;;;;;;;;;;;;4958945;28;19937;-93
2021/06/15 00:03:01;;;;;;;;;;;;;;;;;;4970450;28;19926;-93
2021/06/15 00:05:42;;;;;;;;;;;;;;;;;;4988875;28;19932;-94
2021/06/15 00:08:11;;;;;;;;;;;;;;;;;;4967795;28;19922;-94
2021/06/15 00:10:40;;;;;;;;;;;;;;;;;;4946795;28;19930;-92
2021/06/15 00:13:08;;;;;;;;;;;;;;;;;;4976474;28;19922;-93
2021/06/15 00:15:40;;;;;;;;;;;;;;;;;;4953805;28;19932;-93
2021/06/15 00:18:09;;;;;;;;;;;;;;;;;;4977219;28;19928;-93
2021/06/15 00:20:38;;;;;;;;;;;;;;;;;;4970905;28;19926;-93
2021/06/15 00:23:06;;;;;;;;;;;;;;;;;;4979188;28;19922;-93
2021/06/15 00:25:35;;;;;;;;;;;;;;;;;;4963070;28;19921;-93
2021/06/15 00:28:04;;;;;;;;;;;;;;;;;;4961406;28;19929;-94
2021/06/15 00:30:32;;;;;;;;;;;;;;;;;;4959416;28;19926;-92
2021/06/15 00:33:02;;;;;;;;;;;;;;;;;;4957060;28;19922;-93
2021/06/15 00:35:30;;;;;;;;;;;;;;;;;;4958758;28;20136;-93
2021/06/15 00:37:59;;;;;;;;;;;;;;;;;;4972199;28;19941;-93
2021/06/15 00:40:28;;;;;;;;;;;;;;;;;;4955907;28;19922;-92
2021/06/15 00:42:56;;;;;;;;;;;;;;;;;;4960568;28;20305;-92
2021/06/15 00:45:26;;;;;;;;;;;;;;;;;;4958883;28;19936;-93
2021/06/15 00:47:55;;;;;;;;;;;;;;;;;;4980902;28;19937;-93
2021/06/15 00:50:25;;;;;;;;;;;;;;;;;;4957168;28;19928;-92
2021/06/15 00:52:54;;;;;;;;;;;;;;;;;;4984542;28;19910;-92
2021/06/15 00:55:23;;;;;;;;;;;;;;;;;;4993379;28;19922;-92
2021/06/15 00:57:53;;;;;;;;;;;;;;;;;;4977359;28;19930;-92
2021/06/15 01:00:21;;;;;;;;;;;;;;;;;;4982739;28;20370;-93
2021/06/15 01:02:50;;;;;;;;;;;;;;;;;;4967673;28;19922;-94
2021/06/15 01:05:23;;;;;;;;;;;;;;;;;;4971507;28;20122;-93
2021/06/15 01:07:56;;;;;;;;;;;;;;;;;;4974004;28;19928;-93
2021/06/15 01:10:36;;;;;;;;;;;;;;;;;;4976941;28;19925;-93
2021/06/15 01:13:06;;;;;;;;;;;;;;;;;;4961752;28;19922;-94
2021/06/15 01:15:37;;;;;;;;;;;;;;;;;;4970313;28;19937;-93
2021/06/15 01:18:09;;;;;;;;;;;;;;;;;;4989343;28;19945;-93
2021/06/15 01:20:39;;;;;;;;;;;;;;;;;;4968990;28;19925;-93
2021/06/15 01:23:16;;;;;;;;;;;;;;;;;;4984161;28;19922;-93
2021/06/15 01:25:48;;;;;;;;;;;;;;;;;;4973205;28;19916;-93
2021/06/15 01:28:18;;;;;;;;;;;;;;;;;;4988926;28;19914;-93
2021/06/15 01:30:50;;;;;;;;;;;;;;;;;;4967663;28;19910;-93
2021/06/15 01:33:18;;;;;;;;;;;;;;;;;;4962538;28;19926;-93
2021/06/15 01:35:48;;;;;;;;;;;;;;;;;;4982116;28;19923;-93
2021/06/15 01:38:16;;;;;;;;;;;;;;;;;;4969603;28;19916;-93
2021/06/15 01:40:46;;;;;;;;;;;;;;;;;;4969020;28;19921;-93
2021/06/15 01:43:22;;;;;;;;;;;;;;;;;;4966986;28;19937;-93
2021/06/15 01:45:53;;;;;;;;;;;;;;;;;;4978776;28;19906;-95
2021/06/15 01:48:27;;;;;;;;;;;;;;;;;;4968926;28;19932;-93
2021/06/15 01:50:56;;;;;;;;;;;;;;;;;;4974653;28;19922;-94
2021/06/15 01:53:25;;;;;;;;;;;;;;;;;;4979722;28;19944;-95
2021/06/15 01:55:57;;;;;;;;;;;;;;;;;;4963185;28;19922;-93
2021/06/15 01:58:33;;;;;;;;;;;;;;;;;;4969523;28;19923;-93
2021/06/15 02:01:03;;;;;;;;;;;;;;;;;;4967949;28;19912;-94
2021/06/15 02:03:34;;;;;;;;;;;;;;;;;;4966627;28;19914;-92
2021/06/15 02:06:05;;;;;;;;;;;;;;;;;;4989560;28;19905;-94
2021/06/15 02:08:35;;;;;;;;;;;;;;;;;;4979504;28;19922;-94
2021/06/15 02:11:09;;;;;;;;;;;;;;;;;;4967174;28;19912;-93
2021/06/15 02:13:56;;;;;;;;;;;;;;;;;;4960472;28;19934;-92
2021/06/15 02:16:45;;;;;;;;;;;;;;;;;;4975461;28;19922;-92
2021/06/15 02:19:23;;;;;;;;;;;;;;;;;;4990622;28;19989;-94
2021/06/15 02:21:55;;;;;;;;;;;;;;;;;;4980985;28;19922;-93
2021/06/15 02:24:28;;;;;;;;;;;;;;;;;;4978028;28;19909;-92
2021/06/15 02:26:56;;;;;;;;;;;;;;;;;;4996349;28;19932;-93
2021/06/15 02:29:27;;;;;;;;;;;;;;;;;;4965969;28;19928;-95
2021/06/15 02:31:57;;;;;;;;;;;;;;;;;;4981015;28;19936;-92
2021/06/15 02:34:26;;;;;;;;;;;;;;;;;;4962872;28;20315;-94
2021/06/15 02:36:59;;;;;;;;;;;;;;;;;;4993796;28;19922;-94
2021/06/15 02:39:28;;;;;;;;;;;;;;;;;;4964473;28;19922;-95
2021/06/15 02:41:57;;;;;;;;;;;;;;;;;;4964583;28;19932;-93
2021/06/15 02:44:29;;;;;;;;;;;;;;;;;;4968706;28;19922;-93
2021/06/15 02:46:58;;;;;;;;;;;;;;;;;;4969128;28;19932;-94
2021/06/15 02:49:30;;;;;;;;;;;;;;;;;;4968517;28;19932;-96
2021/06/15 02:52:02;;;;;;;;;;;;;;;;;;4963518;28;19922;-95
2021/06/15 02:54:31;;;;;;;;;;;;;;;;;;4961486;28;19926;-94
2021/06/15 02:57:00;;;;;;;;;;;;;;;;;;4967366;28;19922;-94
2021/06/15 02:59:30;;;;;;;;;;;;;;;;;;4978891;28;19910;-93
2021/06/15 03:01:59;;;;;;;;;;;;;;;;;;4994635;28;19921;-95
2021/06/15 03:04:36;;;;;;;;;;;;;;;;;;4977235;28;19910;-94
2021/06/15 03:07:04;;;;;;;;;;;;;;;;;;4976892;28;19922;-93
2021/06/15 03:09:33;;;;;;;;;;;;;;;;;;4970689;28;19933;-93
2021/06/15 03:12:06;;;;;;;;;;;;;;;;;;4962554;28;19910;-92
2021/06/15 03:14:37;;;;;;;;;;;;;;;;;;4980073;28;19925;-94
2021/06/15 03:17:06;;;;;;;;;;;;;;;;;;4996885;28;19926;-92
2021/06/15 03:19:37;;;;;;;;;;;;;;;;;;4978069;28;19922;-94
2021/06/15 03:22:06;;;;;;;;;;;;;;;;;;4990391;28;19933;-93
2021/06/15 03:24:37;;;;;;;;;;;;;;;;;;4963426;28;19906;-94
2021/06/15 03:27:06;;;;;;;;;;;;;;;;;;4973078;29;20003;-94
2021/06/15 03:29:42;;;;;;;;;;;;;;;;;;4982998;28;20371;-94
2021/06/15 03:32:12;;;;;;;;;;;;;;;;;;4971842;28;19910;-95
2021/06/15 03:34:42;;;;;;;;;;;;;;;;;;4964640;28;19910;-94
2021/06/15 03:37:12;;;;;;;;;;;;;;;;;;4981091;28;19932;-95
2021/06/15 03:39:41;;;;;;;;;;;;;;;;;;4995974;28;19910;-95
2021/06/15 03:42:10;;;;;;;;;;;;;;;;;;4979803;28;19928;-95
2021/06/15 03:44:38;;;;;;;;;;;;;;;;;;4972735;28;19916;-95
2021/06/15 03:47:08;;;;;;;;;;;;;;;;;;4975568;28;19929;-95
2021/06/15 03:49:37;;;;;;;;;;;;;;;;;;4981136;28;19910;-95
2021/06/15 03:52:05;;;;;;;;;;;;;;;;;;4963633;28;20478;-93
2021/06/15 03:54:35;;;;;;;;;;;;;;;;;;4963879;28;19936;-94
2021/06/15 03:57:04;;;;;;;;;;;;;;;;;;4974018;28;20298;-94
2021/06/15 03:59:33;;;;;;;;;;;;;;;;;;4956159;28;19922;-92
2021/06/15 04:02:05;;;;;;;;;;;;;;;;;;4985413;28;19922;-94
2021/06/15 04:04:37;;;;;;;;;;;;;;;;;;4982406;28;19928;-94
2021/06/15 04:07:06;;;;;;;;;;;;;;;;;;4985017;28;19909;-93
2021/06/15 04:09:35;;;;;;;;;;;;;;;;;;4985639;28;19922;-91
2021/06/15 04:12:03;;;;;;;;;;;;;;;;;;4956020;28;19922;-92
2021/06/15 04:14:32;;;;;;;;;;;;;;;;;;4941709;28;20382;-90
2021/06/15 04:17:02;;;;;;;;;;;;;;;;;;4944612;28;19922;-92
2021/06/15 04:19:31;;;;;;;;;;;;;;;;;;4951264;28;20389;-92
2021/06/15 04:22:01;;;;;;;;;;;;;;;;;;4955269;28;19935;-91
2021/06/15 04:24:30;;;;;;;;;;;;;;;;;;4959034;28;19937;-92
2021/06/15 04:26:59;;;;;;;;;;;;;;;;;;4955110;28;19929;-92
2021/06/15 04:29:28;;;;;;;;;;;;;;;;;;4943602;28;19929;-92
2021/06/15 04:31:57;;;;;;;;;;;;;;;;;;4944661;28;19948;-92
2021/06/15 04:34:26;;;;;;;;;;;;;;;;;;4961083;28;19930;-94
2021/06/15 04:36:56;;;;;;;;;;;;;;;;;;4946022;28;20307;-93
2021/06/15 04:39:28;;;;;;;;;;;;;;;;;;4973001;28;19929;-91
2021/06/15 04:41:58;;;;;;;;;;;;;;;;;;4948967;28;20421;-91
2021/06/15 04:44:27;;;;;;;;;;;;;;;;;;4970550;28;19930;-92
2021/06/15 04:46:56;;;;;;;;;;;;;;;;;;4963952;28;19922;-93
2021/06/15 04:49:28;;;;;;;;;;;;;;;;;;4948645;28;19922;-93
2021/06/15 04:51:57;;;;;;;;;;;;;;;;;;4962167;28;19926;-92
2021/06/15 04:54:29;;;;;;;;;;;;;;;;;;4948777;28;20306;-90
2021/06/15 04:56:57;;;;;;;;;;;;;;;;;;4973626;28;19926;-92
2021/06/15 04:59:25;;;;;;;;;;;;;;;;;;4962330;28;19922;-92
2021/06/15 05:01:54;;;;;;;;;;;;;;;;;;4953806;28;19944;-90
2021/06/15 05:04:22;;;;;;;;;;;;;;;;;;4941809;28;19922;-91
2021/06/15 05:06:50;;;;;;;;;;;;;;;;;;4960835;28;22447;-90
2021/06/15 05:09:18;;;;;;;;;;;;;;;;;;4975626;28;19931;-91
2021/06/15 05:11:48;;;;;;;;;;;;;;;;;;4961157;28;19975;-90
2021/06/15 05:14:17;;;;;;;;;;;;;;;;;;4958457;28;20406;-90
2021/06/15 05:16:45;;;;;;;;;;;;;;;;;;4958963;28;20397;-93
2021/06/15 05:19:14;;;;;;;;;;;;;;;;;;4958671;28;19929;-91
2021/06/15 05:21:44;;;;;;;;;;;;;;;;;;4963720;28;19922;-90
2021/06/15 05:24:20;;;;;;;;;;;;;;;;;;4958931;28;19921;-94
2021/06/15 05:26:50;;;;;;;;;;;;;;;;;;4967000;28;19926;-95
2021/06/15 05:29:18;;;;;;;;;;;;;;;;;;4964236;28;19932;-94
2021/06/15 05:31:47;;;;;;;;;;;;;;;;;;4950153;28;19937;-95
2021/06/15 05:34:15;;;;;;;;;;;;;;;;;;4956260;28;20433;-93
2021/06/15 05:36:43;;;;;;;;;;;;;;;;;;4971092;28;19923;-94
2021/06/15 05:39:12;;;;;;;;;;;;;;;;;;4975236;28;19933;-94
2021/06/15 05:41:41;;;;;;;;;;;;;;;;;;4955586;28;19922;-94
2021/06/15 05:44:10;;;;;;;;;;;;;;;;;;4965443;28;19922;-94
2021/06/15 05:46:40;;;;;;;;;;;;;;;;;;4960666;28;19906;-94
2021/06/15 05:49:10;;;;;;;;;;;;;;;;;;4967629;28;19910;-95
2021/06/15 05:51:41;;;;;;;;;;;;;;;;;;4983188;28;19926;-96
2021/06/15 05:54:14;;;;;;;;;;;;;;;;;;4987389;28;19910;-95
2021/06/15 05:56:42;;;;;;;;;;;;;;;;;;4975961;28;19929;-94
2021/06/15 05:59:12;;;;;;;;;;;;;;;;;;4970164;28;19922;-96
2021/06/15 06:01:41;;;;;;;;;;;;;;;;;;4958305;28;19922;-93
2021/06/15 06:04:11;;;;;;;;;;;;;;;;;;4959106;28;19933;-94
2021/06/15 06:09:25;;;;;;;;;;;;;;;;;;4945704;28;19926;-95
2021/06/15 06:11:54;;;;;;;;;;;;;;;;;;4990822;28;19922;-93
2021/06/15 06:14:24;;;;;;;;;;;;;;;;;;4962396;28;19922;-94
2021/06/15 06:16:52;;;;;;;;;;;;;;;;;;4963043;28;19929;-93
2021/06/15 06:19:20;;;;;;;;;;;;;;;;;;4964534;28;19926;-93
2021/06/15 06:21:49;;;;;;;;;;;;;;;;;;4943702;28;20325;-92
2021/06/15 06:24:18;;;;;;;;;;;;;;;;;;4948301;28;19952;-92
2021/06/15 06:26:49;;;;;;;;;;;;;;;;;;4965387;28;20302;-93
2021/06/15 06:29:18;;;;;;;;;;;;;;;;;;4950410;28;19926;-93
2021/06/15 06:31:47;;;;;;;;;;;;;;;;;;4947191;28;19922;-93
2021/06/15 06:34:16;;;;;;;;;;;;;;;;;;4948233;28;19922;-93
2021/06/15 06:36:44;;;;;;;;;;;;;;;;;;4951818;28;19922;-93
2021/06/15 06:39:13;;;;;;;;;;;;;;;;;;4961838;28;20413;-93
2021/06/15 06:41:41;;;;;;;;;;;;;;;;;;4950236;28;19922;-93
2021/06/15 06:44:09;;;;;;;;;;;;;;;;;;4972289;28;20540;-95
2021/06/15 06:46:38;;;;;;;;;;;;;;;;;;4962821;28;19926;-93
2021/06/15 06:49:08;;;;;;;;;;;;;;;;;;4944794;28;20297;-94
2021/06/15 06:51:37;;;;;;;;;;;;;;;;;;4950489;28;19922;-95
2021/06/15 06:54:05;;;;;;;;;;;;;;;;;;4948862;28;19922;-95
2021/06/15 06:56:33;;;;;;;;;;;;;;;;;;4944894;28;20414;-94
2021/06/15 06:59:02;;;;;;;;;;;;;;;;;;4954171;28;19945;-94
2021/06/15 07:01:30;;;;;;;;;;;;;;;;;;4944273;28;19922;-94
2021/06/15 07:03:59;;;;;;;;;;;;;;;;;;4936371;28;19922;-94
2021/06/15 07:06:28;;;;;;;;;;;;;;;;;;4959162;28;19921;-94
2021/06/15 07:08:57;;;;;;;;;;;;;;;;;;4958441;28;19922;-93
2021/06/15 07:11:25;;;;;;;;;;;;;;;;;;4974382;28;20378;-93
2021/06/15 07:13:54;;;;;;;;;;;;;;;;;;4971368;28;19937;-93
2021/06/15 07:16:22;;;;;;;;;;;;;;;;;;4961293;28;19922;-93
2021/06/15 07:18:50;;;;;;;;;;;;;;;;;;4944994;28;19922;-93
2021/06/15 07:21:18;;;;;;;;;;;;;;;;;;4976230;28;19933;-94
2021/06/15 07:23:48;;;;;;;;;;;;;;;;;;4961273;28;19922;-94
2021/06/15 07:26:17;;;;;;;;;;;;;;;;;;4962834;28;20314;-93
2021/06/15 07:28:45;;;;;;;;;;;;;;;;;;4963690;28;19945;-93
2021/06/15 07:31:13;;;;;;;;;;;;;;;;;;4964714;28;19929;-94
2021/06/15 07:33:42;;;;;;;;;;;;;;;;;;4951130;28;19922;-93
2021/06/15 07:40:07;;;;;;;;;;;;;;;;;;4977758;28;19948;-93
2021/06/15 07:42:35;;;;;;;;;;;;;;;;;;4951786;28;20012;-93
2021/06/15 07:45:04;;;;;;;;;;;;;;;;;;4952305;28;19929;-93
2021/06/15 07:47:32;;;;;;;;;;;;;;;;;;4946539;28;19929;-93
2021/06/15 07:50:13;;;;;;;;;;;;;;;;;;4944573;29;19922;-92
2021/06/15 07:52:41;;;;;;;;;;;;;;;;;;4949185;28;19949;-94
2021/06/15 07:55:11;;;;;;;;;;;;;;;;;;4947747;28;19926;-93
2021/06/15 07:57:40;;;;;;;;;;;;;;;;;;4957799;28;19922;-93
2021/06/15 08:00:09;;;;;;;;;;;;;;;;;;4956921;28;19922;-92
2021/06/15 08:02:40;;;;;;;;;;;;;;;;;;4972212;28;19922;-92
2021/06/15 08:05:09;;;;;;;;;;;;;;;;;;4950347;28;19922;-92
2021/06/15 08:07:37;;;;;;;;;;;;;;;;;;4960330;28;19922;-93
2021/06/15 08:10:06;;;;;;;;;;;;;;;;;;4943331;28;19991;-92
2021/06/15 08:12:36;;;;;;;;;;;;;;;;;;4939926;28;19922;-93
2021/06/15 08:15:05;;;;;;;;;;;;;;;;;;4938150;28;20291;-92
2021/06/15 08:17:33;;;;;;;;;;;;;;;;;;4975221;28;19929;-92
2021/06/15 08:20:02;;;;;;;;;;;;;;;;;;4954246;28;19922;-93
2021/06/15 08:22:30;;;;;;;;;;;;;;;;;;4944735;28;19922;-93
2021/06/15 08:24:59;;;;;;;;;;;;;;;;;;4966091;28;19933;-91
2021/06/15 08:27:28;;;;;;;;;;;;;;;;;;4946411;28;19929;-92
2021/06/15 08:29:58;;;;;;;;;;;;;;;;;;4967392;28;19933;-91
2021/06/15 08:32:26;;;;;;;;;;;;;;;;;;4950780;28;19929;-93
2021/06/15 08:34:54;;;;;;;;;;;;;;;;;;4975599;28;19922;-91
2021/06/15 08:37:23;;;;;;;;;;;;;;;;;;4950696;28;20389;-93
2021/06/15 08:39:51;;;;;;;;;;;;;;;;;;4963148;28;20393;-93
2021/06/15 08:42:19;;;;;;;;;;;;;;;;;;4969279;28;19945;-93
2021/06/15 08:44:47;;;;;;;;;;;;;;;;;;4960313;28;19922;-93
2021/06/15 08:47:17;;;;;;;;;;;;;;;;;;4946143;28;19942;-92
2021/06/15 08:49:46;;;;;;;;;;;;;;;;;;4945078;29;19934;-92
2021/06/15 09:01:00;;;;;;;;;;;;;;;;;;4978053;28;20389;-92
2021/06/15 09:03:59;;;;;;;;;;;;;;;;;;4944987;28;19929;-92
2021/06/15 09:06:28;;;;;;;;;;;;;;;;;;4957017;28;19933;-92
2021/06/15 09:08:57;;;;;;;;;;;;;;;;;;4957183;28;20299;-92
2021/06/15 09:11:26;;;;;;;;;;;;;;;;;;4944177;28;19925;-91
2021/06/15 09:13:55;;;;;;;;;;;;;;;;;;4952652;28;19938;-92
2021/06/15 09:16:24;;;;;;;;;;;;;;;;;;4950589;28;20302;-91
2021/06/15 09:18:53;;;;;;;;;;;;;;;;;;4960705;28;19929;-93
2021/06/15 09:21:39;;;;;;;;;;;;;;;;;;4938689;28;19938;-91
2021/06/15 09:24:08;;;;;;;;;;;;;;;;;;4945064;28;19933;-92
2021/06/15 09:26:56;;;;;;;;;;;;;;;;;;4939477;28;19922;-92
2021/06/15 09:29:43;;;;;;;;;;;;;;;;;;4954753;28;20003;-93
2021/06/15 09:32:13;;;;;;;;;;;;;;;;;;4956075;28;19932;-92
2021/06/15 09:34:46;;;;;;;;;;;;;;;;;;4946643;28;19937;-93
2021/06/15 09:37:16;;;;;;;;;;;;;;;;;;4960625;28;19937;-93
2021/06/15 09:39:45;;;;;;;;;;;;;;;;;;4946921;28;19922;-91
2021/06/15 09:42:13;;;;;;;;;;;;;;;;;;4947255;28;20297;-92
2021/06/15 09:44:41;;;;;;;;;;;;;;;;;;4939832;28;19927;-93
2021/06/15 09:47:10;;;;;;;;;;;;;;;;;;4950110;28;19945;-93
2021/06/15 09:49:41;;;;;;;;;;;;;;;;;;4963961;28;19929;-93
2021/06/15 09:52:18;;;;;;;;;;;;;;;;;;4964746;28;19922;-92
2021/06/15 09:54:48;;;;;;;;;;;;;;;;;;4954312;28;19929;-93
2021/06/15 09:57:20;;;;;;;;;;;;;;;;;;4961561;28;20386;-93
2021/06/15 10:00:02;;;;;;;;;;;;;;;;;;4971170;28;19929;-92
2021/06/15 10:02:32;;;;;;;;;;;;;;;;;;4978086;28;19926;-93
2021/06/15 10:05:05;;;;;;;;;;;;;;;;;;4960262;28;19920;-92
2021/06/15 10:07:35;;;;;;;;;;;;;;;;;;4966909;28;19916;-91
2021/06/15 10:10:04;;;;;;;;;;;;;;;;;;4964123;28;19910;-91
2021/06/15 10:12:32;;;;;;;;;;;;;;;;;;4962662;28;19926;-92
2021/06/15 10:15:02;;;;;;;;;;;;;;;;;;4981924;28;19933;-92
2021/06/15 10:17:31;;;;;;;;;;;;;;;;;;4952073;28;20003;-91
2021/06/15 10:19:59;;;;;;;;;;;;;;;;;;4949622;28;19922;-91
2021/06/15 10:22:28;;;;;;;;;;;;;;;;;;4961325;28;19999;-91
2021/06/15 10:24:57;;;;;;;;;;;;;;;;;;4978380;28;19937;-93
2021/06/15 10:27:26;;;;;;;;;;;;;;;;;;4960170;28;19929;-94
2021/06/15 10:29:54;;;;;;;;;;;;;;;;;;4948928;28;19929;-93
2021/06/15 10:32:23;;;;;;;;;;;;;;;;;;4964610;28;19929;-92
2021/06/15 10:34:53;;;;;;;;;;;;;;;;;;4960590;28;19930;-93
2021/06/15 10:37:40;;;;;;;;;;;;;;;;;;4939449;28;19933;-92
2021/06/15 10:40:24;;;;;;;;;;;;;;;;;;4947311;28;19922;-90
2021/06/15 10:43:07;;;;;;;;;;;;;;;;;;4954627;28;19933;-91
2021/06/15 10:45:36;;;;;;;;;;;;;;;;;;4937557;28;19922;-91
2021/06/15 10:48:25;;;;;;;;;;;;;;;;;;4931900;29;19927;-91
2021/06/15 10:50:53;;;;;;;;;;;;;;;;;;4935691;28;19926;-91
2021/06/15 10:53:33;;;;;;;;;;;;;;;;;;4940392;28;19930;-92
2021/06/15 10:56:02;;;;;;;;;;;;;;;;;;4958051;28;19922;-91
2021/06/15 10:58:48;;;;;;;;;;;;;;;;;;4959236;28;19944;-93
2021/06/15 11:01:19;;;;;;;;;;;;;;;;;;4982561;28;19916;-93
2021/06/15 11:03:49;;;;;;;;;;;;;;;;;;4966115;28;19910;-95
2021/06/15 11:06:18;;;;;;;;;;;;;;;;;;4976428;28;19910;-93
2021/06/15 11:08:46;;;;;;;;;;;;;;;;;;4966292;28;19912;-94
2021/06/15 11:11:27;;;;;;;;;;;;;;;;;;4965924;28;19906;-94
2021/06/15 11:13:56;;;;;;;;;;;;;;;;;;4964530;28;19923;-94
2021/06/15 11:16:27;;;;;;;;;;;;;;;;;;4948839;28;19925;-92
2021/06/15 11:19:26;;;;;;;;;;;;;;;;;;4941761;28;20401;-92
2021/06/15 11:21:55;;;;;;;;;;;;;;;;;;4947833;28;19945;-93
2021/06/15 11:24:24;;;;;;;;;;;;;;;;;;4946133;28;19941;-93
2021/06/15 11:26:53;;;;;;;;;;;;;;;;;;4946616;28;19926;-93
2021/06/15 11:29:33;;;;;;;;;;;;;;;;;;4949721;28;20390;-95
2021/06/15 11:32:20;;;;;;;;;;;;;;;;;;4968133;28;20312;-92
2021/06/15 11:35:07;;;;;;;;;;;;;;;;;;4964398;28;19929;-92
2021/06/15 11:37:42;;;;;;;;;;;;;;;;;;4944254;28;19922;-92
2021/06/15 11:40:16;;;;;;;;;;;;;;;;;;4945241;28;19922;-92
2021/06/15 11:42:46;;;;;;;;;;;;;;;;;;4945249;28;19922;-92
2021/06/15 11:45:15;;;;;;;;;;;;;;;;;;4945541;28;19929;-93
2021/06/15 11:47:51;;;;;;;;;;;;;;;;;;4940675;29;20383;-92
2021/06/15 11:50:21;;;;;;;;;;;;;;;;;;4950949;28;20295;-93
2021/06/15 11:53:00;;;;;;;;;;;;;;;;;;4943879;28;20083;-92
2021/06/15 11:55:32;;;;;;;;;;;;;;;;;;4961114;28;19922;-92
2021/06/15 11:58:01;;;;;;;;;;;;;;;;;;4951873;28;19927;-92
2021/06/15 12:00:30;;;;;;;;;;;;;;;;;;4945596;28;20375;-92
2021/06/15 12:03:04;;;;;;;;;;;;;;;;;;4952371;28;19929;-93
2021/06/15 12:06:02;;;;;;;;;;;;;;;;;;4951545;28;19922;-93
2021/06/15 12:08:31;;;;;;;;;;;;;;;;;;4946959;28;19922;-93
2021/06/15 12:10:59;;;;;;;;;;;;;;;;;;4946891;28;19922;-93
2021/06/15 12:13:28;;;;;;;;;;;;;;;;;;4959707;28;19922;-92
2021/06/15 12:16:00;;;;;;;;;;;;;;;;;;4941021;28;19922;-92
2021/06/15 12:18:34;;;;;;;;;;;;;;;;;;4944511;28;20290;-93
2021/06/15 12:21:05;;;;;;;;;;;;;;;;;;4944550;28;19926;-92
2021/06/15 12:23:35;;;;;;;;;;;;;;;;;;4942294;28;19933;-92
2021/06/15 12:26:05;;;;;;;;;;;;;;;;;;4946508;28;19926;-92
2021/06/15 12:28:35;;;;;;;;;;;;;;;;;;4956980;28;19926;-94
2021/06/15 12:31:05;;;;;;;;;;;;;;;;;;4940727;28;20342;-93
2021/06/15 12:33:35;;;;;;;;;;;;;;;;;;4959197;28;20386;-92
2021/06/15 12:36:04;;;;;;;;;;;;;;;;;;4974439;28;19933;-91
2021/06/15 12:38:33;;;;;;;;;;;;;;;;;;4943811;28;19922;-92
2021/06/15 12:41:02;;;;;;;;;;;;;;;;;;4939011;28;19922;-91
2021/06/15 12:43:30;;;;;;;;;;;;;;;;;;4966640;28;19922;-92
2021/06/15 12:46:09;;;;;;;;;;;;;;;;;;4942048;28;19922;-92
2021/06/15 12:48:44;;;;;;;;;;;;;;;;;;4953863;28;19921;-92
2021/06/15 12:51:13;;;;;;;;;;;;;;;;;;4945046;28;19922;-92
2021/06/15 12:53:42;;;;;;;;;;;;;;;;;;4947550;28;19930;-92
2021/06/15 12:56:16;;;;;;;;;;;;;;;;;;4947371;28;19929;-92
2021/06/15 12:58:45;;;;;;;;;;;;;;;;;;4949172;28;20133;-93
2021/06/15 13:01:14;;;;;;;;;;;;;;;;;;4953642;28;19929;-93
2021/06/15 13:03:48;;;;;;;;;;;;;;;;;;4946979;28;20403;-93
2021/06/15 13:06:17;;;;;;;;;;;;;;;;;;4953947;28;19921;-91
2021/06/15 13:08:46;;;;;;;;;;;;;;;;;;4951493;28;20294;-90
2021/06/15 13:11:16;;;;;;;;;;;;;;;;;;4979782;28;19922;-93
2021/06/15 13:13:58;;;;;;;;;;;;;;;;;;4970668;28;19922;-94
2021/06/15 13:16:44;;;;;;;;;;;;;;;;;;4986734;28;19928;-93
2021/06/15 13:19:18;;;;;;;;;;;;;;;;;;4981767;28;19928;-93
2021/06/15 13:21:56;;;;;;;;;;;;;;;;;;4971965;28;19922;-93
2021/06/15 13:24:32;;;;;;;;;;;;;;;;;;4966589;28;19929;-92
2021/06/15 13:27:16;;;;;;;;;;;;;;;;;;4971745;28;19928;-92
2021/06/15 13:29:44;;;;;;;;;;;;;;;;;;4960651;28;19938;-92
2021/06/15 13:32:19;;;;;;;;;;;;;;;;;;4949794;28;19925;-93
2021/06/15 13:34:58;;;;;;;;;;;;;;;;;;4964311;28;19921;-92
2021/06/15 13:37:27;;;;;;;;;;;;;;;;;;4938762;28;19930;-91
2021/06/15 13:39:56;;;;;;;;;;;;;;;;;;4960455;28;19937;-93
2021/06/15 13:42:25;;;;;;;;;;;;;;;;;;4971645;28;19933;-91
2021/06/15 13:45:05;;;;;;;;;;;;;;;;;;4958262;28;20154;-92
2021/06/15 13:47:43;;;;;;;;;;;;;;;;;;4953923;28;19921;-91
2021/06/15 13:50:15;;;;;;;;;;;;;;;;;;4943003;28;19929;-93
2021/06/15 13:52:44;;;;;;;;;;;;;;;;;;4942305;28;20385;-92
2021/06/15 13:55:13;;;;;;;;;;;;;;;;;;4941095;28;19933;-93
2021/06/15 13:57:41;;;;;;;;;;;;;;;;;;4950658;28;20283;-92
2021/06/15 14:00:11;;;;;;;;;;;;;;;;;;4971180;28;20225;-91
2021/06/15 14:02:39;;;;;;;;;;;;;;;;;;4982184;28;19922;-93
2021/06/15 14:05:08;;;;;;;;;;;;;;;;;;4961933;28;20394;-92
2021/06/15 14:07:38;;;;;;;;;;;;;;;;;;4975285;28;19929;-93
2021/06/15 14:10:08;;;;;;;;;;;;;;;;;;4964881;28;20310;-93
2021/06/15 14:12:36;;;;;;;;;;;;;;;;;;4954148;28;20393;-94
2021/06/15 14:15:07;;;;;;;;;;;;;;;;;;4939184;29;19923;-93
2021/06/15 14:17:37;;;;;;;;;;;;;;;;;;4958231;28;19931;-92
2021/06/15 14:20:08;;;;;;;;;;;;;;;;;;4977030;28;19921;-94
2021/06/15 14:22:38;;;;;;;;;;;;;;;;;;4987241;28;19933;-94
2021/06/15 14:25:07;;;;;;;;;;;;;;;;;;4971190;28;19932;-94
2021/06/15 14:27:36;;;;;;;;;;;;;;;;;;4977667;28;19906;-93
2021/06/15 14:30:06;;;;;;;;;;;;;;;;;;4969487;28;19924;-95
2021/06/15 14:32:34;;;;;;;;;;;;;;;;;;4981985;28;19925;-94
2021/06/15 14:35:03;;;;;;;;;;;;;;;;;;4966809;28;19918;-96
2021/06/15 14:37:32;;;;;;;;;;;;;;;;;;4985299;28;19910;-94
2021/06/15 14:40:02;;;;;;;;;;;;;;;;;;4981902;28;19922;-96
2021/06/15 14:42:32;;;;;;;;;;;;;;;;;;4985276;28;19909;-95
2021/06/15 14:45:00;;;;;;;;;;;;;;;;;;4966269;28;19920;-94
2021/06/15 14:47:29;;;;;;;;;;;;;;;;;;4981604;28;19906;-94
2021/06/15 14:49:57;;;;;;;;;;;;;;;;;;4948838;28;19922;-91
2021/06/15 14:52:46;;;;;;;;;;;;;;;;;;4945803;28;19922;-90
2021/06/15 14:55:16;;;;;;;;;;;;;;;;;;4942058;28;19922;-92
2021/06/15 15:01:10;;;;;;;;;;;;;;;;;;4946158;28;19922;-92
2021/06/15 15:03:44;;;;;;;;;;;;;;;;;;4961468;28;19956;-92
2021/06/15 15:06:13;;;;;;;;;;;;;;;;;;4948328;28;19922;-93
2021/06/15 15:08:54;;;;;;;;;;;;;;;;;;4963041;28;19929;-93
2021/06/15 15:11:25;;;;;;;;;;;;;;;;;;4952812;28;19922;-96
2021/06/15 15:13:54;;;;;;;;;;;;;;;;;;4962252;28;19929;-90
2021/06/15 15:16:23;;;;;;;;;;;;;;;;;;4963905;28;19930;-90
2021/06/15 15:18:52;;;;;;;;;;;;;;;;;;4958492;28;20309;-90
2021/06/15 15:21:23;;;;;;;;;;;;;;;;;;4959262;28;19925;-91
2021/06/15 15:23:53;;;;;;;;;;;;;;;;;;4953404;28;19922;-91
2021/06/15 15:26:25;;;;;;;;;;;;;;;;;;4960786;28;19930;-92
2021/06/15 15:28:54;;;;;;;;;;;;;;;;;;4977825;28;19922;-89
2021/06/15 15:31:24;;;;;;;;;;;;;;;;;;4959648;28;19921;-90
2021/06/15 15:33:52;;;;;;;;;;;;;;;;;;4972048;28;19933;-89
2021/06/15 15:57:15;;;;;;;;;;;;;;;;;;4974127;28;19933;-91
2021/06/15 16:00:32;;;;;;;;;;;;;;;;;;4959965;28;19922;-90
2021/06/15 16:03:02;;;;;;;;;;;;;;;;;;4949582;28;19922;-90
2021/06/15 16:05:30;;;;;;;;;;;;;;;;;;4959829;28;19929;-90
2021/06/15 16:07:59;;;;;;;;;;;;;;;;;;4946063;28;20293;-88
2021/06/15 16:10:29;;;;;;;;;;;;;;;;;;4948033;28;19922;-90
2021/06/15 16:12:59;;;;;;;;;;;;;;;;;;4962074;28;19922;-91
2021/06/15 16:19:33;;;;;;;;;;;;;;;;;;4931764;29;19914;-90
2021/06/15 16:22:03;;;;;;;;;;;;;;;;;;4960016;28;20325;-93
2021/06/15 16:24:32;;;;;;;;;;;;;;;;;;4958198;28;19929;-91
2021/06/15 16:27:00;;;;;;;;;;;;;;;;;;4959793;28;19921;-91
2021/06/15 16:29:29;;;;;;;;;;;;;;;;;;4957829;28;19926;-92
2021/06/15 16:31:57;;;;;;;;;;;;;;;;;;4945922;28;19922;-92
2021/06/15 16:34:33;;;;;;;;;;;;;;;;;;4968020;28;19937;-91
2021/06/15 16:37:02;;;;;;;;;;;;;;;;;;4945586;28;19922;-92
2021/06/15 16:39:30;;;;;;;;;;;;;;;;;;4964196;28;19922;-91
2021/06/15 16:41:58;;;;;;;;;;;;;;;;;;4948398;28;19933;-91
2021/06/15 16:44:29;;;;;;;;;;;;;;;;;;4941673;28;19922;-90
2021/06/15 16:54:20;;;;;;;;;;;;;;;;;;4959411;28;19929;-90
2021/06/15 16:57:42;;;;;;;;;;;;;;;;;;4959763;28;19930;-90
2021/06/15 17:00:22;;;;;;;;;;;;;;;;;;4940621;28;20390;-90
2021/06/15 17:03:15;;;;;;;;;;;;;;;;;;4939291;28;19933;-90
2021/06/15 17:05:55;;;;;;;;;;;;;;;;;;4945809;28;19922;-90
2021/06/15 17:09:05;;;;;;;;;;;;;;;;;;4962684;28;19930;-90
2021/06/15 17:12:13;;;;;;;;;;;;;;;;;;4955136;28;19933;-90
2021/06/15 17:15:13;;;;;;;;;;;;;;;;;;4950631;28;19926;-90
2021/06/15 17:17:49;;;;;;;;;;;;;;;;;;4954790;28;19933;-90
2021/06/15 17:20:18;;;;;;;;;;;;;;;;;;4948806;28;19922;-90
2021/06/15 17:22:46;;;;;;;;;;;;;;;;;;4960465;28;19926;-90
2021/06/15 17:25:16;;;;;;;;;;;;;;;;;;4944543;28;20342;-90
2021/06/15 17:27:46;;;;;;;;;;;;;;;;;;4942153;28;19922;-90
2021/06/15 17:30:18;;;;;;;;;;;;;;;;;;4957640;28;19926;-90
2021/06/15 17:36:05;;;;;;;;;;;;;;;;;;4961514;28;19933;-87
2021/06/15 17:38:34;;;;;;;;;;;;;;;;;;4941484;28;19922;-88
2021/06/15 17:41:02;;;;;;;;;;;;;;;;;;4956390;28;20321;-86
2021/06/15 17:43:34;;;;;;;;;;;;;;;;;;4946751;28;20007;-91
2021/06/15 17:46:37;;;;;;;;;;;;;;;;;;4966623;28;19922;-89
2021/06/15 17:49:14;;;;;;;;;;;;;;;;;;4950305;28;19921;-89
2021/06/15 17:51:55;;;;;;;;;;;;;;;;;;4943272;28;20374;-89
2021/06/15 17:55:01;;;;;;;;;;;;;;;;;;4957550;28;19921;-90
2021/06/15 17:57:30;;;;;;;;;;;;;;;;;;4974748;28;20325;-89
2021/06/15 17:59:58;;;;;;;;;;;;;;;;;;4954336;28;20301;-90
2021/06/15 18:02:27;;;;;;;;;;;;;;;;;;4976698;28;19929;-90
2021/06/15 18:05:02;;;;;;;;;;;;;;;;;;4956421;28;19922;-89
2021/06/15 18:07:34;;;;;;;;;;;;;;;;;;4966610;28;19945;-90
2021/06/15 18:10:02;;;;;;;;;;;;;;;;;;4948671;28;19929;-90